createdAt,value
2023-11-24T00:00:46.631Z,8.16
2023-11-24T00:05:43.326Z,8.15
2023-11-24T00:10:40.001Z,8.32
2023-11-24T00:15:38.668Z,8.28
2023-11-24T00:20:35.689Z,8.34
2023-11-24T00:25:33.176Z,8.26
2023-11-24T00:30:29.771Z,8.40
2023-11-24T00:35:27.107Z,8.35
2023-11-24T00:40:23.845Z,8.37
2023-11-24T00:45:20.624Z,8.25
2023-11-24T00:50:17.588Z,8.20
2023-11-24T00:55:15.209Z,8.21
2023-11-24T01:00:12.625Z,8.35
2023-11-24T01:05:09.980Z,8.26
2023-11-24T01:10:08.378Z,8.36
2023-11-24T01:15:06.736Z,8.38
2023-11-24T01:20:04.607Z,8.36
2023-11-24T01:25:02.766Z,8.28
2023-11-24T01:29:59.466Z,8.39
2023-11-24T01:34:56.827Z,8.48
2023-11-24T01:39:53.919Z,8.31
2023-11-24T01:44:50.749Z,8.28
2023-11-24T01:49:48.175Z,8.15
2023-11-24T01:54:47.891Z,8.33
2023-11-24T01:59:44.855Z,8.41
2023-11-24T02:04:41.519Z,8.42
2023-11-24T02:09:40.750Z,8.42
2023-11-24T02:14:38.299Z,8.44
2023-11-24T02:19:34.974Z,8.51
2023-11-24T02:24:32.353Z,8.19
2023-11-24T02:29:31.624Z,8.40
2023-11-24T02:34:28.824Z,8.48
2023-11-24T02:39:26.413Z,8.67
2023-11-24T02:44:23.718Z,8.57
2023-11-24T02:49:20.418Z,8.30
2023-11-24T02:54:18.147Z,8.50
2023-11-24T02:59:14.795Z,8.44
2023-11-24T03:04:12.810Z,8.45
2023-11-24T03:09:10.523Z,8.34
2023-11-24T03:14:07.998Z,8.31
2023-11-24T03:19:04.718Z,8.40
2023-11-24T03:24:01.950Z,8.48
2023-11-24T03:28:58.729Z,8.49
2023-11-24T03:33:55.442Z,8.39
2023-11-24T03:38:55.816Z,8.43
2023-11-24T03:43:53.872Z,8.31
2023-11-24T03:48:52.758Z,8.43
2023-11-24T03:53:49.621Z,8.46
2023-11-24T03:58:46.523Z,8.40
2023-11-24T04:03:48.904Z,8.30
2023-11-24T04:08:45.770Z,8.51
2023-11-24T04:13:43.856Z,8.35
2023-11-24T04:18:40.740Z,8.52
2023-11-24T04:23:42.420Z,8.39
2023-11-24T04:28:39.397Z,8.47
2023-11-24T04:33:36.621Z,8.43
2023-11-24T04:38:36.474Z,8.62
2023-11-24T04:43:34.086Z,8.63
2023-11-24T04:48:30.828Z,8.58
2023-11-24T04:53:27.494Z,8.56
2023-11-24T04:58:24.194Z,8.63
2023-11-24T05:03:21.609Z,8.60
2023-11-24T05:08:18.289Z,8.82
2023-11-24T05:13:14.980Z,8.75
2023-11-24T05:18:13.542Z,8.75
2023-11-24T05:23:11.012Z,8.76
2023-11-24T05:28:10.188Z,8.75
2023-11-24T05:33:06.940Z,8.73
2023-11-24T05:38:06.793Z,8.72
2023-11-24T05:43:04.663Z,8.76
2023-11-24T05:48:02.321Z,8.73
2023-11-24T05:52:59.066Z,8.81
2023-11-24T05:57:57.140Z,9.01
2023-11-24T06:02:54.659Z,9.03
2023-11-24T06:07:54.096Z,8.77
2023-11-24T06:12:55.590Z,8.61
2023-11-24T06:17:52.261Z,8.57
2023-11-24T06:22:49.915Z,8.54
2023-11-24T06:27:46.660Z,8.67
2023-11-24T06:32:43.750Z,8.52
2023-11-24T06:37:43.322Z,8.44
2023-11-24T06:42:41.353Z,8.47
2023-11-24T06:47:41.246Z,8.40
2023-11-24T06:52:38.187Z,8.25
2023-11-24T06:57:40.930Z,8.17
2023-11-24T07:02:42.800Z,8.18
2023-11-24T07:07:39.617Z,8.38
2023-11-24T07:12:38.150Z,8.24
2023-11-24T07:17:37.598Z,8.25
2023-11-24T07:22:35.001Z,8.48
2023-11-24T07:27:32.450Z,8.50
2023-11-24T07:32:30.037Z,8.78
2023-11-24T07:37:27.318Z,8.92
2023-11-24T07:42:25.123Z,9.02
2023-11-24T07:47:22.160Z,8.98
2023-11-24T07:52:19.076Z,9.13
2023-11-24T07:57:15.973Z,9.36
2023-11-24T08:02:13.698Z,9.45
2023-11-24T08:07:10.886Z,9.56
2023-11-24T08:12:10.378Z,9.47
2023-11-24T08:17:09.993Z,9.64
2023-11-24T08:22:07.871Z,9.87
2023-11-24T08:27:05.384Z,9.75
2023-11-24T08:32:02.845Z,9.96
2023-11-24T08:37:02.750Z,9.93
2023-11-24T08:42:00.455Z,10.10
2023-11-24T08:46:57.535Z,10.07
2023-11-24T08:51:54.587Z,10.07
2023-11-24T08:56:51.753Z,10.13
2023-11-24T09:01:50.061Z,10.13
2023-11-24T09:06:48.611Z,10.20
2023-11-24T09:11:45.473Z,10.25
2023-11-24T09:16:42.463Z,10.23
2023-11-24T09:21:40.292Z,10.33
2023-11-24T09:26:37.225Z,10.36
2023-11-24T09:31:35.822Z,10.51
2023-11-24T09:36:34.828Z,10.41
2023-11-24T09:41:36.745Z,10.41
2023-11-24T09:46:46.273Z,10.56
2023-11-24T09:51:49.250Z,10.59
2023-11-24T09:56:46.926Z,10.57
2023-11-24T10:01:44.054Z,10.51
2023-11-24T10:06:44.151Z,10.68
2023-11-24T10:11:45.563Z,10.72
2023-11-24T10:16:43.342Z,10.78
2023-11-24T10:21:43.542Z,10.72
2023-11-24T10:26:42.898Z,10.89
2023-11-24T10:31:40.227Z,10.71
2023-11-24T10:36:37.971Z,10.84
2023-11-24T10:41:40.020Z,10.85
2023-11-24T10:46:46.861Z,10.95
2023-11-24T10:51:49.679Z,10.98
2023-11-24T10:56:51.161Z,10.91
2023-11-24T11:01:52.868Z,11.14
2023-11-24T11:07:06.148Z,11.10
2023-11-24T11:12:30.198Z,11.14
2023-11-24T11:17:27.256Z,11.17
2023-11-24T11:22:31.081Z,11.30
2023-11-24T11:27:36.026Z,11.49
2023-11-24T11:32:32.893Z,11.67
2023-11-24T11:37:32.146Z,11.61
2023-11-24T11:42:52.754Z,11.66
2023-11-24T11:48:06.342Z,11.81
2023-11-24T11:53:06.356Z,11.92
2023-11-24T11:58:04.914Z,12.02
2023-11-24T12:03:05.709Z,12.11
2023-11-24T12:08:07.152Z,12.20
2023-11-24T12:13:06.615Z,12.24
2023-11-24T12:18:08.643Z,12.21
2023-11-24T12:23:08.559Z,12.40
2023-11-24T12:28:06.651Z,12.56
2023-11-24T12:33:04.435Z,12.75
2023-11-24T12:38:01.168Z,12.67
2023-11-24T12:43:01.130Z,12.73
2023-11-24T12:48:03.251Z,12.89
2023-11-24T12:53:04.284Z,13.11
2023-11-24T12:58:01.841Z,13.34
2023-11-24T13:02:58.681Z,13.44
2023-11-24T13:07:57.764Z,13.37
2023-11-24T13:12:54.914Z,13.54
2023-11-24T13:17:54.088Z,13.62
2023-11-24T13:22:52.382Z,13.63
2023-11-24T13:27:52.575Z,13.66
2023-11-24T13:32:50.163Z,13.58
2023-11-24T13:37:59.531Z,13.70
2023-11-24T13:43:01.484Z,13.65
2023-11-24T13:48:01.118Z,13.66
2023-11-24T13:52:58.960Z,13.85
2023-11-24T13:58:03.609Z,13.96
2023-11-24T14:03:01.802Z,13.81
2023-11-24T14:07:59.683Z,14.01
2023-11-24T14:13:01.481Z,14.07
2023-11-24T14:18:02.279Z,14.01
2023-11-24T14:23:00.219Z,13.95
2023-11-24T14:27:59.907Z,13.80
2023-11-24T14:32:59.836Z,13.73
2023-11-24T14:37:57.683Z,13.84
2023-11-24T14:42:55.385Z,13.65
2023-11-24T14:47:54.082Z,13.74
2023-11-24T14:52:51.126Z,13.54
2023-11-24T14:57:48.598Z,13.44
2023-11-24T15:02:49.022Z,13.46
2023-11-24T15:07:50.186Z,13.42
2023-11-24T15:12:48.420Z,13.33
2023-11-24T15:17:48.950Z,13.25
2023-11-24T15:22:46.418Z,13.20
2023-11-24T15:27:48.063Z,13.36
2023-11-24T15:32:45.141Z,13.36
2023-11-24T15:37:41.904Z,13.21
2023-11-24T15:42:39.584Z,13.08
2023-11-24T15:47:39.320Z,12.98
2023-11-24T15:52:37.561Z,12.89
2023-11-24T15:57:39.328Z,13.11
2023-11-24T16:02:38.228Z,13.04
2023-11-24T16:07:35.369Z,13.01
2023-11-24T16:12:34.054Z,13.10
2023-11-24T16:17:30.917Z,13.05
2023-11-24T16:22:28.404Z,12.98
2023-11-24T16:27:25.077Z,12.84
2023-11-24T16:32:22.777Z,12.82
2023-11-24T16:37:19.724Z,12.82
2023-11-24T16:42:16.981Z,12.72
2023-11-24T16:47:16.745Z,12.58
2023-11-24T16:52:13.868Z,12.64
2023-11-24T16:57:12.951Z,12.52
2023-11-24T17:02:10.464Z,12.47
2023-11-24T17:07:07.381Z,12.29
2023-11-24T17:12:07.697Z,12.24
2023-11-24T17:17:06.276Z,12.22
2023-11-24T17:22:07.174Z,12.18
2023-11-24T17:27:05.552Z,12.24
2023-11-24T17:32:05.443Z,11.85
2023-11-24T17:37:03.339Z,11.91
2023-11-24T17:42:00.858Z,11.81
2023-11-24T17:46:57.733Z,11.70
2023-11-24T17:51:54.735Z,11.70
2023-11-24T17:56:54.031Z,11.61
2023-11-24T18:01:51.612Z,11.49
2023-11-24T18:06:48.476Z,11.54
2023-11-24T18:11:47.970Z,11.49
2023-11-24T18:16:48.214Z,11.44
2023-11-24T18:21:48.229Z,11.45
2023-11-24T18:26:45.164Z,11.59
2023-11-24T18:31:42.827Z,11.54
2023-11-24T18:36:41.702Z,11.50
2023-11-24T18:41:39.067Z,11.45
2023-11-24T18:46:35.895Z,11.54
2023-11-24T18:51:32.705Z,11.50
2023-11-24T18:56:29.489Z,11.41
2023-11-24T19:01:28.842Z,11.51
2023-11-24T19:06:26.657Z,11.67
2023-11-24T19:11:24.033Z,11.72
2023-11-24T19:16:23.159Z,11.71
2023-11-24T19:21:23.423Z,11.82
2023-11-24T19:26:21.018Z,11.94
2023-11-24T19:31:20.591Z,11.79
2023-11-24T19:36:19.975Z,11.92
2023-11-24T19:41:17.551Z,11.61
2023-11-24T19:46:14.982Z,11.46
2023-11-24T19:51:12.385Z,11.25
2023-11-24T19:56:09.921Z,11.22
2023-11-24T20:01:09.449Z,11.13
2023-11-24T20:06:06.772Z,11.23
2023-11-24T20:11:07.879Z,11.28
2023-11-24T20:16:09.798Z,11.49
2023-11-24T20:21:06.812Z,11.60
2023-11-24T20:26:04.424Z,11.61
2023-11-24T20:31:01.766Z,11.78
2023-11-24T20:35:59.238Z,11.84
2023-11-24T20:40:56.182Z,11.78
2023-11-24T20:45:53.088Z,11.51
2023-11-24T20:50:50.225Z,11.52
2023-11-24T20:55:47.733Z,11.40
2023-11-24T21:00:44.342Z,11.39
2023-11-24T21:05:41.106Z,11.54
2023-11-24T21:10:38.795Z,11.69
2023-11-24T21:15:36.221Z,11.73
2023-11-24T21:20:34.266Z,11.76
2023-11-24T21:25:31.166Z,11.76
2023-11-24T21:30:29.806Z,11.80
2023-11-24T21:35:28.219Z,11.73
2023-11-24T21:40:25.399Z,11.63
2023-11-24T21:45:23.280Z,11.55
2023-11-24T21:50:20.167Z,11.62
2023-11-24T21:55:18.033Z,11.39
2023-11-24T22:00:17.657Z,11.21
2023-11-24T22:05:14.598Z,10.96
2023-11-24T22:10:12.852Z,10.82
2023-11-24T22:15:10.516Z,10.72
2023-11-24T22:20:11.121Z,10.71
2023-11-24T22:25:09.037Z,10.70
2023-11-24T22:30:07.004Z,10.66
2023-11-24T22:35:06.757Z,10.65
2023-11-24T22:40:05.834Z,10.69
2023-11-24T22:45:06.205Z,10.81
2023-11-24T22:50:06.471Z,10.63
2023-11-24T22:55:06.148Z,10.90
2023-11-24T23:00:06.753Z,10.89
2023-11-24T23:05:04.226Z,10.88
2023-11-24T23:10:01.461Z,10.97
2023-11-24T23:15:00.261Z,11.07
2023-11-24T23:19:57.192Z,11.06
2023-11-24T23:24:54.560Z,11.04
2023-11-24T23:29:51.652Z,10.93
2023-11-24T23:34:49.225Z,10.81
2023-11-24T23:39:46.283Z,10.72
2023-11-24T23:44:43.705Z,10.75
2023-11-24T23:49:40.983Z,10.83
2023-11-24T23:54:39.988Z,10.70
2023-11-24T23:59:39.333Z,10.79
